METAR stanice u blizini

 

LYBE - Beograd / Surčin, Srbija
Ažurirano: 22/05/2018 16:00
Few Clouds
Few Clouds
 Pravac vetra IJI
Vetar: IJI 20 km/h
Temperatura: 26°C
Tačka rose: 16°C
Vlažnost: 54%
Pritisak: 1015 hPa
Oblaci: Few Clouds
Vidljivost: 10 km
Cloud details: Few Clouds 1219 m
2018/05/22 14:00 LYBE 221400Z 11011KT 080V140 9999 FEW040 26/16 Q1015 NOSIG
LYBT - Beograd / Batajnica, Srbija
Ažurirano: 22/05/2018 16:00
Vedro
Vedro
 Pravac vetra I
Vetar: I 22 km/h
Temperatura: 25°C
Tačka rose: 16°C
Vlažnost: 57%
Pritisak: 1015 hPa
Pregled: Vedro
Vidljivost: greater than 10 km
2018/05/22 14:00 LYBT 221400Z 08012KT 040V120 CAVOK 25/16 Q1015 NOSIG
LYVR - Vršac, Srbija
Ažurirano: 22/05/2018 16:00
Few Clouds
Few Clouds
 Pravac vetra JI
Vetar: JI 31 km/h, Maks.: 54 km/h
Temperatura: 24°C
Tačka rose: 12°C
Vlažnost: 47%
Pritisak: 1016 hPa
Oblaci: Few Clouds
Vidljivost: 10 km
Cloud details: Few Clouds 914 m
2018/05/22 14:00 LYVR 221400Z 14017G29KT 9999 FEW030 24/12 Q1016 NOSIG
 
LYKV - Lađevci, Srbija
Ažurirano: 22/05/2018 16:00
Partly Cloudy
Partly Cloudy
 Pravac vetra JJI
Vetar: JJI 9 km/h
Temperatura: 22°C
Tačka rose: 17°C
Vlažnost: 73%
Pritisak: 1015 hPa
Oblaci: Partly Cloudy
Vidljivost: 10 km
Cloud details: Few Clouds 914 m
Partly Cloudy 1006 m
2018/05/22 14:00 LYKV 221400Z 16005KT 9999 FEW030TCU SCT033 22/17 Q1015 TEMPO VRB10G25KT 4000 TSRA SCT030CB SCT035
LYNI - Niš, Srbija
Ažurirano: 22/05/2018 16:00
Partly Cloudy
Partly Cloudy
 Pravac vetra ISI
Vetar: ISI 17 km/h
Temperatura: 22°C
Tačka rose: 15°C
Vlažnost: 65%
Pritisak: 1016 hPa
Oblaci: Partly Cloudy
Vidljivost: 10 km
Cloud details: Few Clouds 1006 m
Partly Cloudy 1219 m
2018/05/22 14:00 LYNI 221400Z 06009KT 030V090 9999 FEW033TCU SCT040 22/15 Q1016 TEMPO FM1500 20015G25KT 4000 TSRA SCT030CB BKN040
BKPR - Priština, Srbija
Ažurirano: 22/05/2018 16:00
Thunderstorm, Pretežno oblačno
Thunderstorm, Pretežno oblačno
 Pravac vetra JJI
Vetar: JJI 17 km/h
Temperatura: 23°C
Tačka rose: 14°C
Vlažnost: 57%
Pritisak: 1017 hPa
Pregled: Thunderstorm
Oblaci: Mostly Cloudy
Vidljivost: 10 km
Cloud details: Partly Cloudy 914 m
Mostly Cloudy 1219 m
2018/05/22 14:00 BKPR 221400Z 16009KT 9999 TS SCT030CB BKN040 23/14 Q1017 TEMPO 3000 SHRA
 
LHPP - Pecs / Pogany, Hungary
Ažurirano: 22/05/2018 15:45
Mostly Cloudy
Mostly Cloudy
 Pravac vetra JI
Vetar: JI 9 km/h
Temperatura: 24°C
Tačka rose: 13°C
Vlažnost: 50%
Pritisak: 1016 hPa
Oblaci: Mostly Cloudy
Vidljivost: 10 km
Cloud details: Few Clouds 1402 m
Mostly Cloudy 6096 m
2018/05/22 13:45 LHPP 221345Z 13005KT 9999 FEW046 BKN200 24/13 Q1016
LHUD - Szeged, Hungary
Ažurirano: 22/05/2018 15:45
Partly Cloudy
Partly Cloudy
 Pravac vetra IJI
Vetar: IJI 19 km/h
Temperatura: 24°C
Tačka rose: 13°C
Vlažnost: 50%
Pritisak: 1016 hPa
Oblaci: Partly Cloudy
Vidljivost: 10 km
Cloud details: Partly Cloudy 1311 m
2018/05/22 13:45 LHUD 221345Z 12010KT 9999 SCT043 24/13 Q1016
LRTR - Timisoara, Romania
Ažurirano: 22/05/2018 16:00
Few Clouds
Few Clouds
 Pravac vetra J
Vetar: J 13 km/h
Temperatura: 24°C
Tačka rose: 14°C
Vlažnost: 54%
Pritisak: 1016 hPa
Oblaci: Few Clouds
Vidljivost: 10 km
Cloud details: Few Clouds 1463 m
2018/05/22 14:00 LRTR 221400Z 17007KT 9999 FEW048 24/14 Q1016
 
LRCV - Craiova, Romania
Ažurirano: 22/05/2018 16:00
Vedro
Vedro
 Pravac vetra I
Vetar: I 19 km/h
Temperatura: 23°C
Tačka rose: 10°C
Vlažnost: 44%
Pritisak: 1019 hPa
Pregled: Vedro
Vidljivost: greater than 10 km
2018/05/22 14:00 LRCV 221400Z 08010KT CAVOK 23/10 Q1019
LBSF - Sofia, Bulgaria
Ažurirano: 22/05/2018 16:00
Partly Cloudy
Partly Cloudy
 Pravac vetra IJI
Vetar: IJI 20 km/h
Temperatura: 24°C
Tačka rose: 10°C
Vlažnost: 41%
Pritisak: 1018 hPa
Oblaci: Partly Cloudy
Vidljivost: 10 km
Cloud details: Few Clouds 914 m
Partly Cloudy 1524 m
2018/05/22 14:00 LBSF 221400Z 12011KT 9999 FEW030TCU SCT050 24/10 Q1018 NOSIG
LWSK - Skoplje, Makedonija
Ažurirano: 22/05/2018 16:00
Slaba kiša, Oblačno
Slaba kiša, Oblačno
 Pravac vetra Z
Vetar: Z 6 km/h
Temperatura: 20°C
Tačka rose: 15°C
Vlažnost: 73%
Pritisak: 1017 hPa
Pregled: Light Rain
Oblaci: Oblačno
Vidljivost: 10 km
Cloud details: Partly Cloudy 1524 m
Oblačno 3048 m
2018/05/22 14:00 LWSK 221400Z 28003KT 9999 -RA SCT050 OVC100 20/15 Q1017 NOSIG
 
LYPG - Podgorica, Crna Gora
Ažurirano: 22/05/2018 16:00
Few Clouds
Few Clouds
 Pravac vetra JJI
Vetar: JJI 7 km/h
Temperatura: 28°C
Heat Index: 28°C
Tačka rose: 15°C
Vlažnost: 45%
Pritisak: 1014 hPa
Oblaci: Few Clouds
Vidljivost: 10 km
Cloud details: Few Clouds 1219 m
2018/05/22 14:00 LYPG 221400Z 15004KT 070V220 9999 FEW040 28/15 Q1014 NOSIG
LQSA - Sarajevo, Bosna i Hercegovina
Ažurirano: 22/05/2018 16:00
Partly Cloudy
Partly Cloudy
 Pravac vetra JJI
Vetar: JJI 9 km/h
Temperatura: 23°C
Tačka rose: 15°C
Vlažnost: 61%
Pritisak: 1015 hPa
Oblaci: Partly Cloudy
Vidljivost: 10 km
Cloud details: Partly Cloudy 1676 m
2018/05/22 14:00 LQSA 221400Z 16005KT 130V220 9999 SCT055 23/15 Q1015 NOSIG
LDOS - Osijek, Hrvatksa
Ažurirano: 22/05/2018 16:00
Vedro
Vedro
 Pravac vetra JI
Vetar: JI 9 km/h
Temperatura: 27°C
Tačka rose: 12°C
Vlažnost: 39%
Pritisak: 1014 hPa
Pregled: Vedro
Vidljivost: greater than 10 km
2018/05/22 14:00 LDOS 221400Z 14005KT 100V190 CAVOK 27/12 Q1014